sensor_id;sensor_type;location;lat;lon;timestamp;pressure;altitude;pressure_sealevel;temperature;humidity
6389;BME280;3227;42.654;23.360;2022-09-09T00:00:25;94682.59;;;19.96;76.94
6389;BME280;3227;42.654;23.360;2022-09-09T00:02:59;94674.75;;;19.98;77.21
6389;BME280;3227;42.654;23.360;2022-09-09T00:05:34;94634.59;;;19.80;76.89
6389;BME280;3227;42.654;23.360;2022-09-09T00:08:13;94646.78;;;19.78;77.26
6389;BME280;3227;42.654;23.360;2022-09-09T00:10:41;94669.03;;;19.87;77.68
6389;BME280;3227;42.654;23.360;2022-09-09T00:13:15;94664.81;;;19.84;77.78
6389;BME280;3227;42.654;23.360;2022-09-09T00:15:52;94668.94;;;19.90;77.49
6389;BME280;3227;42.654;23.360;2022-09-09T00:18:25;94671.69;;;19.85;77.92
6389;BME280;3227;42.654;23.360;2022-09-09T00:20:58;94620.09;;;19.48;78.25
6389;BME280;3227;42.654;23.360;2022-09-09T00:23:32;94658.31;;;19.71;78.22
6389;BME280;3227;42.654;23.360;2022-09-09T00:26:07;94661.72;;;19.73;78.59
6389;BME280;3227;42.654;23.360;2022-09-09T00:28:39;94650.41;;;19.74;78.34
6389;BME280;3227;42.654;23.360;2022-09-09T00:31:12;94595.00;;;19.46;78.21
6389;BME280;3227;42.654;23.360;2022-09-09T00:33:40;94645.03;;;19.79;77.81
6389;BME280;3227;42.654;23.360;2022-09-09T00:36:13;94636.34;;;19.80;77.54
6389;BME280;3227;42.654;23.360;2022-09-09T00:38:44;94615.22;;;19.64;78.07
6389;BME280;3227;42.654;23.360;2022-09-09T00:41:17;94639.22;;;19.72;78.36
6389;BME280;3227;42.654;23.360;2022-09-09T00:43:52;94630.56;;;19.71;78.51
6389;BME280;3227;42.654;23.360;2022-09-09T00:49:15;94622.75;;;19.71;78.21
6389;BME280;3227;42.654;23.360;2022-09-09T00:51:54;94626.25;;;19.70;78.22
6389;BME280;3227;42.654;23.360;2022-09-09T00:54:32;94627.31;;;19.65;78.33
6389;BME280;3227;42.654;23.360;2022-09-09T00:57:13;94619.91;;;19.53;79.24
6389;BME280;3227;42.654;23.360;2022-09-09T00:59:47;94626.09;;;19.50;79.67
6389;BME280;3227;42.654;23.360;2022-09-09T01:02:26;94627.72;;;19.53;78.89
6389;BME280;3227;42.654;23.360;2022-09-09T01:04:58;94630.31;;;19.53;78.76
6389;BME280;3227;42.654;23.360;2022-09-09T01:07:30;94626.81;;;19.54;78.16
6389;BME280;3227;42.654;23.360;2022-09-09T01:09:58;94626.03;;;19.52;77.79
6389;BME280;3227;42.654;23.360;2022-09-09T01:12:34;94592.88;;;19.32;77.06
6389;BME280;3227;42.654;23.360;2022-09-09T01:15:11;94628.56;;;19.53;77.31
6389;BME280;3227;42.654;23.360;2022-09-09T01:17:52;94535.13;;;18.97;77.71
6389;BME280;3227;42.654;23.360;2022-09-09T01:20:23;94621.75;;;19.51;76.97
6389;BME280;3227;42.654;23.360;2022-09-09T01:23:04;94628.47;;;19.56;76.86
6389;BME280;3227;42.654;23.360;2022-09-09T01:28:51;94631.03;;;19.58;77.27
6389;BME280;3227;42.654;23.360;2022-09-09T01:31:21;94619.88;;;19.54;77.24
6389;BME280;3227;42.654;23.360;2022-09-09T01:33:49;94625.03;;;19.56;77.03
6389;BME280;3227;42.654;23.360;2022-09-09T01:36:23;94631.16;;;19.53;77.42
6389;BME280;3227;42.654;23.360;2022-09-09T01:38:51;94636.31;;;19.55;77.69
6389;BME280;3227;42.654;23.360;2022-09-09T01:41:20;94646.06;;;19.48;77.78
6389;BME280;3227;42.654;23.360;2022-09-09T01:43:47;94640.25;;;19.40;77.93
6389;BME280;3227;42.654;23.360;2022-09-09T01:46:14;94635.78;;;19.44;78.26
6389;BME280;3227;42.654;23.360;2022-09-09T01:48:41;94637.56;;;19.43;78.01
6389;BME280;3227;42.654;23.360;2022-09-09T01:51:09;94580.69;;;19.08;78.38
6389;BME280;3227;42.654;23.360;2022-09-09T01:53:37;94641.81;;;19.44;78.41
6389;BME280;3227;42.654;23.360;2022-09-09T01:56:14;94657.34;;;19.47;78.05
6389;BME280;3227;42.654;23.360;2022-09-09T01:58:56;94640.44;;;19.34;78.44
6389;BME280;3227;42.654;23.360;2022-09-09T02:01:35;94632.81;;;19.28;78.82
6389;BME280;3227;42.654;23.360;2022-09-09T02:04:13;94652.03;;;19.24;79.37
6389;BME280;3227;42.654;23.360;2022-09-09T02:06:45;94647.03;;;19.18;80.06
6389;BME280;3227;42.654;23.360;2022-09-09T02:09:19;94646.25;;;19.14;80.16
6389;BME280;3227;42.654;23.360;2022-09-09T02:11:54;94637.81;;;19.08;80.15
6389;BME280;3227;42.654;23.360;2022-09-09T02:14:30;94642.81;;;19.14;80.15
6389;BME280;3227;42.654;23.360;2022-09-09T02:17:02;94641.03;;;19.16;80.27
6389;BME280;3227;42.654;23.360;2022-09-09T02:19:32;94633.22;;;19.16;80.12
6389;BME280;3227;42.654;23.360;2022-09-09T02:22:01;94623.56;;;19.19;79.69
6389;BME280;3227;42.654;23.360;2022-09-09T02:24:31;94620.09;;;19.20;79.63
6389;BME280;3227;42.654;23.360;2022-09-09T02:27:03;94621.81;;;19.20;79.76
6389;BME280;3227;42.654;23.360;2022-09-09T02:29:34;94628.03;;;19.16;80.26
6389;BME280;3227;42.654;23.360;2022-09-09T02:32:06;94607.81;;;18.97;80.75
6389;BME280;3227;42.654;23.360;2022-09-09T02:34:43;94631.72;;;19.09;80.65
6389;BME280;3227;42.654;23.360;2022-09-09T02:37:12;94629.09;;;19.10;80.65
6389;BME280;3227;42.654;23.360;2022-09-09T02:39:41;94594.50;;;18.80;80.73
6389;BME280;3227;42.654;23.360;2022-09-09T02:42:08;94633.88;;;18.94;81.13
6389;BME280;3227;42.654;23.360;2022-09-09T02:44:36;94633.44;;;18.80;81.72
6389;BME280;3227;42.654;23.360;2022-09-09T02:47:34;94636.16;;;18.77;82.31
6389;BME280;3227;42.654;23.360;2022-09-09T02:50:08;94644.84;;;18.76;82.85
6389;BME280;3227;42.654;23.360;2022-09-09T02:52:45;94656.69;;;18.85;82.64
6389;BME280;3227;42.654;23.360;2022-09-09T02:55:20;94650.66;;;18.84;82.66
6389;BME280;3227;42.654;23.360;2022-09-09T02:57:51;94644.72;;;18.79;82.74
6389;BME280;3227;42.654;23.360;2022-09-09T03:00:24;94643.84;;;18.80;82.64
6389;BME280;3227;42.654;23.360;2022-09-09T03:02:51;94643.09;;;18.77;82.81
6389;BME280;3227;42.654;23.360;2022-09-09T03:05:18;94638.22;;;18.66;83.70
6389;BME280;3227;42.654;23.360;2022-09-09T03:07:46;94642.72;;;18.61;83.56
6389;BME280;3227;42.654;23.360;2022-09-09T03:10:12;94654.06;;;18.57;84.14
6389;BME280;3227;42.654;23.360;2022-09-09T03:12:39;94643.53;;;18.61;84.30
6389;BME280;3227;42.654;23.360;2022-09-09T03:15:07;94652.09;;;18.65;83.90
6389;BME280;3227;42.654;23.360;2022-09-09T03:17:36;94647.75;;;18.66;84.07
6389;BME280;3227;42.654;23.360;2022-09-09T03:20:03;94654.59;;;18.68;83.42
6389;BME280;3227;42.654;23.360;2022-09-09T03:22:30;94652.00;;;18.68;83.73
6389;BME280;3227;42.654;23.360;2022-09-09T03:24:57;94643.34;;;18.69;83.72
6389;BME280;3227;42.654;23.360;2022-09-09T03:27:24;94639.91;;;18.67;83.57
6389;BME280;3227;42.654;23.360;2022-09-09T03:29:51;94640.78;;;18.68;83.78
6389;BME280;3227;42.654;23.360;2022-09-09T03:32:18;94643.63;;;18.58;83.37
6389;BME280;3227;42.654;23.360;2022-09-09T03:34:49;94655.75;;;18.58;82.83
6389;BME280;3227;42.654;23.360;2022-09-09T03:37:16;94654.06;;;18.55;83.09
6389;BME280;3227;42.654;23.360;2022-09-09T03:39:43;94646.38;;;18.52;82.85
6389;BME280;3227;42.654;23.360;2022-09-09T03:42:12;94645.69;;;18.46;83.97
6389;BME280;3227;42.654;23.360;2022-09-09T03:44:44;94644.91;;;18.44;83.74
6389;BME280;3227;42.654;23.360;2022-09-09T03:47:13;94639.59;;;18.47;84.07
6389;BME280;3227;42.654;23.360;2022-09-09T03:49:40;94642.97;;;18.50;83.55
6389;BME280;3227;42.654;23.360;2022-09-09T03:52:09;94642.03;;;18.53;83.14
6389;BME280;3227;42.654;23.360;2022-09-09T03:54:36;94647.22;;;18.53;83.33
6389;BME280;3227;42.654;23.360;2022-09-09T03:57:03;94649.06;;;18.49;82.96
6389;BME280;3227;42.654;23.360;2022-09-09T03:59:31;94649.28;;;18.42;83.79
6389;BME280;3227;42.654;23.360;2022-09-09T04:01:58;94653.63;;;18.41;83.70
6389;BME280;3227;42.654;23.360;2022-09-09T04:04:25;94653.66;;;18.40;84.12
6389;BME280;3227;42.654;23.360;2022-09-09T04:06:52;94657.69;;;18.50;83.44
6389;BME280;3227;42.654;23.360;2022-09-09T04:09:21;94658.41;;;18.55;83.70
6389;BME280;3227;42.654;23.360;2022-09-09T04:11:48;94660.03;;;18.60;83.09
6389;BME280;3227;42.654;23.360;2022-09-09T04:14:15;94654.41;;;18.74;83.15
6389;BME280;3227;42.654;23.360;2022-09-09T04:16:42;94662.63;;;18.88;81.75
6389;BME280;3227;42.654;23.360;2022-09-09T04:19:10;94657.69;;;19.09;81.04
6389;BME280;3227;42.654;23.360;2022-09-09T04:21:38;94656.16;;;19.29;79.88
6389;BME280;3227;42.654;23.360;2022-09-09T04:24:06;94649.53;;;19.49;78.94
6389;BME280;3227;42.654;23.360;2022-09-09T04:26:35;94595.41;;;19.33;77.77
6389;BME280;3227;42.654;23.360;2022-09-09T04:29:03;94657.06;;;19.83;77.00
6389;BME280;3227;42.654;23.360;2022-09-09T04:31:31;94664.91;;;20.06;76.10
6389;BME280;3227;42.654;23.360;2022-09-09T04:33:57;94658.91;;;20.29;75.25
6389;BME280;3227;42.654;23.360;2022-09-09T04:36:27;94665.63;;;20.59;73.53
6389;BME280;3227;42.654;23.360;2022-09-09T04:38:54;94668.13;;;20.85;71.88
6389;BME280;3227;42.654;23.360;2022-09-09T04:41:21;94653.41;;;21.08;70.93
6389;BME280;3227;42.654;23.360;2022-09-09T04:43:49;94661.06;;;21.34;69.44
6389;BME280;3227;42.654;23.360;2022-09-09T04:46:19;94670.53;;;21.37;68.76
6389;BME280;3227;42.654;23.360;2022-09-09T04:48:45;94678.16;;;21.19;69.61
6389;BME280;3227;42.654;23.360;2022-09-09T04:51:13;94670.09;;;21.02;70.33
6389;BME280;3227;42.654;23.360;2022-09-09T04:53:40;94654.50;;;20.79;71.19
6389;BME280;3227;42.654;23.360;2022-09-09T04:56:09;94627.56;;;20.57;71.66
6389;BME280;3227;42.654;23.360;2022-09-09T04:58:37;94646.38;;;20.86;71.23
6389;BME280;3227;42.654;23.360;2022-09-09T05:01:07;94648.75;;;21.38;69.58
6389;BME280;3227;42.654;23.360;2022-09-09T05:03:34;94632.00;;;21.85;67.33
6389;BME280;3227;42.654;23.360;2022-09-09T05:06:08;94654.09;;;22.39;65.74
6389;BME280;3227;42.654;23.360;2022-09-09T05:08:36;94650.53;;;22.60;64.22
6389;BME280;3227;42.654;23.360;2022-09-09T05:11:03;94636.78;;;22.75;63.20
6389;BME280;3227;42.654;23.360;2022-09-09T05:13:30;94574.78;;;22.60;62.70
6389;BME280;3227;42.654;23.360;2022-09-09T05:16:09;94636.16;;;23.08;60.41
6389;BME280;3227;42.654;23.360;2022-09-09T05:18:37;94649.09;;;23.11;60.64
6389;BME280;3227;42.654;23.360;2022-09-09T05:21:04;94595.13;;;22.91;59.33
6389;BME280;3227;42.654;23.360;2022-09-09T05:23:31;94638.47;;;23.51;59.06
6389;BME280;3227;42.654;23.360;2022-09-09T05:25:59;94633.31;;;23.67;57.72
6389;BME280;3227;42.654;23.360;2022-09-09T05:28:27;94636.94;;;23.82;56.79
6389;BME280;3227;42.654;23.360;2022-09-09T05:30:58;94637.88;;;23.81;56.65
6389;BME280;3227;42.654;23.360;2022-09-09T05:33:28;94642.38;;;23.96;55.40
6389;BME280;3227;42.654;23.360;2022-09-09T05:35:58;94640.75;;;24.11;55.62
6389;BME280;3227;42.654;23.360;2022-09-09T05:38:36;94604.69;;;24.16;55.04
6389;BME280;3227;42.654;23.360;2022-09-09T05:41:03;94641.06;;;24.55;54.46
6389;BME280;3227;42.654;23.360;2022-09-09T05:43:30;94644.13;;;24.63;52.98
6389;BME280;3227;42.654;23.360;2022-09-09T05:46:02;94649.31;;;24.64;52.86
6389;BME280;3227;42.654;23.360;2022-09-09T05:48:31;94650.06;;;24.67;52.80
6389;BME280;3227;42.654;23.360;2022-09-09T05:51:00;94655.03;;;24.55;52.93
6389;BME280;3227;42.654;23.360;2022-09-09T05:53:27;94659.06;;;24.45;52.95
6389;BME280;3227;42.654;23.360;2022-09-09T05:56:01;94648.63;;;24.28;51.75
6389;BME280;3227;42.654;23.360;2022-09-09T05:58:30;94650.69;;;24.21;51.66
6389;BME280;3227;42.654;23.360;2022-09-09T06:01:01;94656.06;;;24.18;51.53
6389;BME280;3227;42.654;23.360;2022-09-09T06:03:28;94622.81;;;24.03;51.66
6389;BME280;3227;42.654;23.360;2022-09-09T06:06:00;94674.31;;;24.20;51.85
6389;BME280;3227;42.654;23.360;2022-09-09T06:08:27;94672.41;;;24.23;52.96
6389;BME280;3227;42.654;23.360;2022-09-09T06:11:00;94676.94;;;24.37;52.19
6389;BME280;3227;42.654;23.360;2022-09-09T06:13:28;94671.59;;;24.56;51.35
6389;BME280;3227;42.654;23.360;2022-09-09T06:15:55;94679.94;;;24.80;51.48
6389;BME280;3227;42.654;23.360;2022-09-09T06:18:24;94671.91;;;25.00;50.65
6389;BME280;3227;42.654;23.360;2022-09-09T06:20:56;94665.47;;;25.21;50.14
6389;BME280;3227;42.654;23.360;2022-09-09T06:23:25;94661.59;;;25.44;49.05
6389;BME280;3227;42.654;23.360;2022-09-09T06:25:52;94665.09;;;25.60;48.11
6389;BME280;3227;42.654;23.360;2022-09-09T06:28:26;94660.50;;;25.64;48.27
6389;BME280;3227;42.654;23.360;2022-09-09T06:30:57;94665.31;;;25.71;47.71
6389;BME280;3227;42.654;23.360;2022-09-09T06:33:24;94669.72;;;25.39;47.85
6389;BME280;3227;42.654;23.360;2022-09-09T06:35:51;94668.72;;;25.11;49.04
6389;BME280;3227;42.654;23.360;2022-09-09T06:38:18;94667.44;;;25.02;49.12
6389;BME280;3227;42.654;23.360;2022-09-09T06:40:52;94661.84;;;24.92;49.64
6389;BME280;3227;42.654;23.360;2022-09-09T06:43:20;94660.19;;;24.57;50.51
6389;BME280;3227;42.654;23.360;2022-09-09T06:45:53;94661.88;;;24.58;51.06
6389;BME280;3227;42.654;23.360;2022-09-09T06:48:20;94659.22;;;24.42;51.28
6389;BME280;3227;42.654;23.360;2022-09-09T06:50:46;94659.59;;;24.17;51.56
6389;BME280;3227;42.654;23.360;2022-09-09T06:53:16;94669.56;;;24.28;52.31
6389;BME280;3227;42.654;23.360;2022-09-09T06:55:45;94674.84;;;24.61;51.90
6389;BME280;3227;42.654;23.360;2022-09-09T06:58:13;94666.94;;;25.11;51.20
6389;BME280;3227;42.654;23.360;2022-09-09T07:00:40;94676.81;;;25.53;50.30
6389;BME280;3227;42.654;23.360;2022-09-09T07:03:07;94671.25;;;25.75;49.83
6389;BME280;3227;42.654;23.360;2022-09-09T07:05:34;94671.47;;;26.02;48.95
6389;BME280;3227;42.654;23.360;2022-09-09T07:08:01;94676.56;;;26.19;49.20
6389;BME280;3227;42.654;23.360;2022-09-09T07:10:28;94682.16;;;26.13;48.60
6389;BME280;3227;42.654;23.360;2022-09-09T07:12:55;94676.22;;;26.25;49.37
6389;BME280;3227;42.654;23.360;2022-09-09T07:15:23;94674.41;;;26.41;47.70
6389;BME280;3227;42.654;23.360;2022-09-09T07:17:50;94653.94;;;26.46;47.41
6389;BME280;3227;42.654;23.360;2022-09-09T07:20:18;94665.81;;;26.68;47.17
6389;BME280;3227;42.654;23.360;2022-09-09T07:22:45;94672.56;;;26.58;46.72
6389;BME280;3227;42.654;23.360;2022-09-09T07:25:12;94667.38;;;26.42;46.16
6389;BME280;3227;42.654;23.360;2022-09-09T07:27:40;94668.78;;;26.47;47.88
6389;BME280;3227;42.654;23.360;2022-09-09T07:30:08;94656.78;;;26.58;48.89
6389;BME280;3227;42.654;23.360;2022-09-09T07:32:36;94665.44;;;26.60;46.93
6389;BME280;3227;42.654;23.360;2022-09-09T07:35:04;94663.22;;;26.52;46.42
6389;BME280;3227;42.654;23.360;2022-09-09T07:37:31;94656.84;;;26.42;45.70
6389;BME280;3227;42.654;23.360;2022-09-09T07:39:57;94659.59;;;26.25;47.20
6389;BME280;3227;42.654;23.360;2022-09-09T07:42:24;94659.22;;;26.17;46.79
6389;BME280;3227;42.654;23.360;2022-09-09T07:44:51;94655.25;;;26.09;47.58
6389;BME280;3227;42.654;23.360;2022-09-09T07:47:20;94670.47;;;26.19;45.42
6389;BME280;3227;42.654;23.360;2022-09-09T07:49:48;94669.63;;;26.18;46.89
6389;BME280;3227;42.654;23.360;2022-09-09T07:52:15;94671.88;;;26.24;47.55
6389;BME280;3227;42.654;23.360;2022-09-09T07:54:43;94669.44;;;26.51;47.00
6389;BME280;3227;42.654;23.360;2022-09-09T07:57:11;94661.84;;;26.61;46.34
6389;BME280;3227;42.654;23.360;2022-09-09T07:59:37;94662.41;;;26.51;45.11
6389;BME280;3227;42.654;23.360;2022-09-09T08:02:04;94666.59;;;26.40;44.82
6389;BME280;3227;42.654;23.360;2022-09-09T08:04:32;94661.91;;;26.31;46.88
6389;BME280;3227;42.654;23.360;2022-09-09T08:07:00;94661.34;;;26.40;48.08
6389;BME280;3227;42.654;23.360;2022-09-09T08:09:28;94663.50;;;26.33;45.41
6389;BME280;3227;42.654;23.360;2022-09-09T08:11:57;94665.41;;;26.15;45.86
6389;BME280;3227;42.654;23.360;2022-09-09T08:14:26;94664.16;;;26.07;46.56
6389;BME280;3227;42.654;23.360;2022-09-09T08:16:53;94669.75;;;26.01;47.55
6389;BME280;3227;42.654;23.360;2022-09-09T08:19:20;94667.53;;;26.09;47.25
6389;BME280;3227;42.654;23.360;2022-09-09T08:21:46;94657.91;;;26.24;46.15
6389;BME280;3227;42.654;23.360;2022-09-09T08:24:15;94665.00;;;26.37;45.90
6389;BME280;3227;42.654;23.360;2022-09-09T08:26:43;94637.78;;;26.38;45.43
6389;BME280;3227;42.654;23.360;2022-09-09T08:29:11;94651.59;;;26.42;44.35
6389;BME280;3227;42.654;23.360;2022-09-09T08:31:40;94663.38;;;26.05;45.50
6389;BME280;3227;42.654;23.360;2022-09-09T08:34:08;94665.25;;;26.03;45.83
6389;BME280;3227;42.654;23.360;2022-09-09T08:36:36;94657.31;;;25.89;45.81
6389;BME280;3227;42.654;23.360;2022-09-09T08:39:04;94655.44;;;25.76;46.08
6389;BME280;3227;42.654;23.360;2022-09-09T08:41:41;94654.91;;;25.86;48.45
6389;BME280;3227;42.654;23.360;2022-09-09T08:44:16;94626.09;;;25.84;47.44
6389;BME280;3227;42.654;23.360;2022-09-09T08:46:51;94631.69;;;25.94;48.00
6389;BME280;3227;42.654;23.360;2022-09-09T08:49:40;94651.66;;;26.26;48.48
6389;BME280;3227;42.654;23.360;2022-09-09T08:52:16;94627.59;;;26.18;45.70
6389;BME280;3227;42.654;23.360;2022-09-09T08:54:46;94650.75;;;26.27;48.14
6389;BME280;3227;42.654;23.360;2022-09-09T08:57:25;94635.25;;;26.37;46.57
6389;BME280;3227;42.654;23.360;2022-09-09T08:59:55;94644.94;;;26.50;47.04
6389;BME280;3227;42.654;23.360;2022-09-09T09:02:25;94640.81;;;26.61;46.88
6389;BME280;3227;42.654;23.360;2022-09-09T09:05:01;94640.94;;;26.73;47.42
6389;BME280;3227;42.654;23.360;2022-09-09T09:07:41;94645.53;;;26.84;46.09
6389;BME280;3227;42.654;23.360;2022-09-09T09:10:17;94642.06;;;26.83;45.16
6389;BME280;3227;42.654;23.360;2022-09-09T09:12:50;94647.31;;;26.83;45.04
6389;BME280;3227;42.654;23.360;2022-09-09T09:15:23;94641.00;;;26.86;46.10
6389;BME280;3227;42.654;23.360;2022-09-09T09:17:50;94648.00;;;27.01;45.14
6389;BME280;3227;42.654;23.360;2022-09-09T09:20:20;94644.22;;;27.05;44.59
6389;BME280;3227;42.654;23.360;2022-09-09T09:22:53;94634.63;;;27.04;44.80
6389;BME280;3227;42.654;23.360;2022-09-09T09:25:22;94632.94;;;27.03;45.04
6389;BME280;3227;42.654;23.360;2022-09-09T09:27:58;94627.78;;;27.02;44.28
6389;BME280;3227;42.654;23.360;2022-09-09T09:30:29;94633.16;;;27.00;44.69
6389;BME280;3227;42.654;23.360;2022-09-09T09:33:02;94637.25;;;27.04;44.57
6389;BME280;3227;42.654;23.360;2022-09-09T09:35:29;94638.78;;;27.08;44.38
6389;BME280;3227;42.654;23.360;2022-09-09T09:37:56;94633.69;;;27.05;44.91
6389;BME280;3227;42.654;23.360;2022-09-09T09:40:23;94640.66;;;27.06;45.33
6389;BME280;3227;42.654;23.360;2022-09-09T09:42:54;94637.53;;;27.14;44.84
6389;BME280;3227;42.654;23.360;2022-09-09T09:45:28;94587.47;;;26.87;44.30
6389;BME280;3227;42.654;23.360;2022-09-09T09:48:01;94617.75;;;27.08;44.05
6389;BME280;3227;42.654;23.360;2022-09-09T09:50:29;94616.50;;;27.14;44.25
6389;BME280;3227;42.654;23.360;2022-09-09T09:52:58;94595.94;;;27.06;43.83
6389;BME280;3227;42.654;23.360;2022-09-09T09:55:26;94615.97;;;27.09;43.60
6389;BME280;3227;42.654;23.360;2022-09-09T09:58:02;94620.19;;;26.97;43.74
6389;BME280;3227;42.654;23.360;2022-09-09T10:00:30;94607.28;;;26.78;44.55
6389;BME280;3227;42.654;23.360;2022-09-09T10:02:59;94614.63;;;26.73;44.88
6389;BME280;3227;42.654;23.360;2022-09-09T10:05:27;94574.94;;;26.49;44.78
6389;BME280;3227;42.654;23.360;2022-09-09T10:08:03;94609.38;;;26.59;45.15
6389;BME280;3227;42.654;23.360;2022-09-09T10:10:42;94618.47;;;26.53;45.62
6389;BME280;3227;42.654;23.360;2022-09-09T10:13:20;94620.16;;;26.55;45.45
6389;BME280;3227;42.654;23.360;2022-09-09T10:15:58;94605.25;;;26.55;45.35
6389;BME280;3227;42.654;23.360;2022-09-09T10:18:41;94618.13;;;26.60;45.09
6389;BME280;3227;42.654;23.360;2022-09-09T10:21:30;94613.59;;;26.47;45.72
6389;BME280;3227;42.654;23.360;2022-09-09T10:24:13;94622.63;;;26.43;45.85
6389;BME280;3227;42.654;23.360;2022-09-09T10:26:46;94626.72;;;26.33;46.65
6389;BME280;3227;42.654;23.360;2022-09-09T10:29:26;94621.22;;;26.22;46.58
6389;BME280;3227;42.654;23.360;2022-09-09T10:32:07;94632.06;;;26.02;47.11
6389;BME280;3227;42.654;23.360;2022-09-09T10:34:51;94605.03;;;25.70;47.21
6389;BME280;3227;42.654;23.360;2022-09-09T10:37:33;94631.00;;;25.90;48.31
6389;BME280;3227;42.654;23.360;2022-09-09T10:40:12;94628.84;;;25.97;48.57
6389;BME280;3227;42.654;23.360;2022-09-09T10:42:43;94630.19;;;26.04;48.21
6389;BME280;3227;42.654;23.360;2022-09-09T10:45:17;94628.88;;;26.11;49.23
6389;BME280;3227;42.654;23.360;2022-09-09T10:48:00;94627.09;;;26.11;48.44
6389;BME280;3227;42.654;23.360;2022-09-09T10:50:38;94634.53;;;26.19;48.17
6389;BME280;3227;42.654;23.360;2022-09-09T10:53:17;94638.19;;;26.17;48.26
6389;BME280;3227;42.654;23.360;2022-09-09T10:55:52;94636.22;;;26.20;47.01
6389;BME280;3227;42.654;23.360;2022-09-09T10:58:22;94608.03;;;25.94;47.29
6389;BME280;3227;42.654;23.360;2022-09-09T11:00:55;94616.00;;;25.92;47.55
6389;BME280;3227;42.654;23.360;2022-09-09T11:03:25;94623.59;;;25.97;48.36
6389;BME280;3227;42.654;23.360;2022-09-09T11:05:56;94623.03;;;25.92;48.40
6389;BME280;3227;42.654;23.360;2022-09-09T11:08:26;94606.19;;;25.80;49.28
6389;BME280;3227;42.654;23.360;2022-09-09T11:10:58;94621.41;;;25.89;49.50
6389;BME280;3227;42.654;23.360;2022-09-09T11:13:32;94618.72;;;25.91;49.86
6389;BME280;3227;42.654;23.360;2022-09-09T11:16:11;94591.28;;;25.81;50.04
6389;BME280;3227;42.654;23.360;2022-09-09T11:18:42;94630.78;;;26.09;50.12
6389;BME280;3227;42.654;23.360;2022-09-09T11:21:24;94618.28;;;26.12;50.02
6389;BME280;3227;42.654;23.360;2022-09-09T11:23:55;94619.31;;;26.26;51.04
6389;BME280;3227;42.654;23.360;2022-09-09T11:26:30;94607.41;;;26.34;49.75
6389;BME280;3227;42.654;23.360;2022-09-09T11:29:15;94608.13;;;26.36;49.08
6389;BME280;3227;42.654;23.360;2022-09-09T11:31:58;94607.47;;;26.33;49.29
6389;BME280;3227;42.654;23.360;2022-09-09T11:34:42;94595.97;;;26.20;48.59
6389;BME280;3227;42.654;23.360;2022-09-09T11:37:28;94589.84;;;26.05;48.63
6389;BME280;3227;42.654;23.360;2022-09-09T11:40:17;94577.63;;;25.90;49.26
6389;BME280;3227;42.654;23.360;2022-09-09T11:42:45;94585.50;;;25.90;50.50
6389;BME280;3227;42.654;23.360;2022-09-09T11:45:24;94585.34;;;25.93;50.08
6389;BME280;3227;42.654;23.360;2022-09-09T11:47:55;94571.44;;;25.91;50.26
6389;BME280;3227;42.654;23.360;2022-09-09T11:50:31;94559.44;;;25.87;50.74
6389;BME280;3227;42.654;23.360;2022-09-09T11:53:16;94545.38;;;25.88;50.46
6389;BME280;3227;42.654;23.360;2022-09-09T11:55:46;94522.13;;;25.82;50.53
6389;BME280;3227;42.654;23.360;2022-09-09T11:58:17;94509.91;;;25.66;51.30
6389;BME280;3227;42.654;23.360;2022-09-09T12:00:47;94515.00;;;25.69;51.62
6389;BME280;3227;42.654;23.360;2022-09-09T12:03:34;94547.16;;;25.87;51.56
6389;BME280;3227;42.654;23.360;2022-09-09T12:06:11;94550.66;;;26.02;50.68
6389;BME280;3227;42.654;23.360;2022-09-09T12:08:43;94550.69;;;26.16;49.87
6389;BME280;3227;42.654;23.360;2022-09-09T12:11:11;94544.97;;;26.24;49.93
6389;BME280;3227;42.654;23.360;2022-09-09T12:13:38;94540.78;;;26.35;50.06
6389;BME280;3227;42.654;23.360;2022-09-09T12:16:29;94524.44;;;26.30;49.61
6389;BME280;3227;42.654;23.360;2022-09-09T12:19:15;94526.47;;;26.25;49.72
6389;BME280;3227;42.654;23.360;2022-09-09T12:21:48;94533.69;;;26.22;50.00
6389;BME280;3227;42.654;23.360;2022-09-09T12:24:23;94536.22;;;26.23;50.39
6389;BME280;3227;42.654;23.360;2022-09-09T12:26:58;94531.56;;;26.28;50.13
6389;BME280;3227;42.654;23.360;2022-09-09T12:29:32;94531.38;;;26.31;50.60
6389;BME280;3227;42.654;23.360;2022-09-09T12:32:06;94530.53;;;26.45;50.25
6389;BME280;3227;42.654;23.360;2022-09-09T12:34:39;94518.25;;;26.60;49.54
6389;BME280;3227;42.654;23.360;2022-09-09T12:37:14;94513.72;;;26.62;49.51
6389;BME280;3227;42.654;23.360;2022-09-09T12:39:46;94509.13;;;26.65;49.83
6389;BME280;3227;42.654;23.360;2022-09-09T12:42:20;94492.16;;;26.57;50.11
6389;BME280;3227;42.654;23.360;2022-09-09T12:44:51;94502.47;;;26.60;50.42
6389;BME280;3227;42.654;23.360;2022-09-09T12:47:20;94506.88;;;26.59;50.41
6389;BME280;3227;42.654;23.360;2022-09-09T12:49:50;94507.25;;;26.53;50.27
6389;BME280;3227;42.654;23.360;2022-09-09T12:52:25;94509.34;;;26.48;50.59
6389;BME280;3227;42.654;23.360;2022-09-09T12:54:55;94500.97;;;26.56;50.58
6389;BME280;3227;42.654;23.360;2022-09-09T12:57:24;94496.06;;;26.64;50.19
6389;BME280;3227;42.654;23.360;2022-09-09T12:59:52;94500.44;;;26.77;50.06
6389;BME280;3227;42.654;23.360;2022-09-09T13:02:30;94491.72;;;26.91;49.69
6389;BME280;3227;42.654;23.360;2022-09-09T13:05:14;94475.13;;;27.03;49.43
6389;BME280;3227;42.654;23.360;2022-09-09T13:07:42;94484.47;;;27.21;49.11
6389;BME280;3227;42.654;23.360;2022-09-09T13:10:11;94489.19;;;27.16;48.83
6389;BME280;3227;42.654;23.360;2022-09-09T13:12:38;94484.66;;;27.18;49.30
6389;BME280;3227;42.654;23.360;2022-09-09T13:15:12;94488.03;;;27.20;49.37
6389;BME280;3227;42.654;23.360;2022-09-09T13:17:41;94483.72;;;27.19;49.29
6389;BME280;3227;42.654;23.360;2022-09-09T13:20:16;94484.66;;;27.18;49.25
6389;BME280;3227;42.654;23.360;2022-09-09T13:22:43;94481.59;;;27.12;49.88
6389;BME280;3227;42.654;23.360;2022-09-09T13:25:20;94479.06;;;27.10;49.65
6389;BME280;3227;42.654;23.360;2022-09-09T13:27:56;94466.31;;;27.04;49.91
6389;BME280;3227;42.654;23.360;2022-09-09T13:30:26;94461.16;;;26.88;50.11
6389;BME280;3227;42.654;23.360;2022-09-09T13:33:05;94450.66;;;26.88;50.41
6389;BME280;3227;42.654;23.360;2022-09-09T13:35:34;94458.34;;;27.06;50.33
6389;BME280;3227;42.654;23.360;2022-09-09T13:38:08;94454.59;;;26.96;50.54